Time;durP1;ratioP1;P1;durP2;ratioP2;P2;SDS_P1;SDS_P2;PMS_P1;PMS_P2;Temp;Humidity;BMP_temperature;BMP_pressure;BME280_temperature;BME280_humidity;BME280_pressure;Samples;Min_cycle;Max_cycle;Signal;HPM_P1;HPM_P2
2021/09/13 00:00:03;;;;;;;11.10;5.60;;;14.40;92.60;;;;;;5078530;28;20100;-78
2021/09/13 00:02:36;;;;;;;11.20;5.68;;;14.40;92.60;;;;;;5077474;28;20119;-76
2021/09/13 00:05:05;;;;;;;8.13;5.60;;;14.30;92.70;;;;;;5075332;28;20025;-76
2021/09/13 00:07:34;;;;;;;9.65;5.57;;;14.30;92.70;;;;;;5076811;28;20043;-74
2021/09/13 00:10:08;;;;;;;11.20;5.70;;;14.30;92.70;;;;;;5077451;28;20064;-77
2021/09/13 00:12:34;;;;;;;8.30;5.60;;;14.30;92.70;;;;;;5075163;28;20021;-78
2021/09/13 00:15:11;;;;;;;12.68;6.00;;;14.30;92.80;;;;;;5077946;28;20047;-79
2021/09/13 00:17:46;;;;;;;10.77;5.93;;;14.20;92.80;;;;;;5076529;28;20089;-77
2021/09/13 00:20:12;;;;;;;8.98;5.70;;;14.20;92.90;;;;;;5076263;28;20372;-76
2021/09/13 00:22:41;;;;;;;13.77;6.47;;;14.20;92.90;;;;;;5075628;28;20016;-74
2021/09/13 00:25:07;;;;;;;8.63;5.93;;;14.20;92.90;;;;;;5075603;28;20028;-77
2021/09/13 00:27:33;;;;;;;15.15;6.88;;;14.20;92.80;;;;;;5081932;28;20026;-77
2021/09/13 00:29:59;;;;;;;11.05;5.95;;;14.20;92.90;;;;;;5084125;28;20025;-77
2021/09/13 00:32:25;;;;;;;9.75;5.78;;;14.20;92.90;;;;;;5085052;28;20025;-76
2021/09/13 00:34:50;;;;;;;10.75;5.78;;;14.20;92.90;;;;;;5080821;28;20028;-77
2021/09/13 00:37:16;;;;;;;10.00;5.88;;;14.20;92.90;;;;;;5077801;28;20050;-76
2021/09/13 00:39:42;;;;;;;10.38;6.50;;;14.20;93.00;;;;;;5075511;28;20457;-76
2021/09/13 00:42:07;;;;;;;13.80;6.25;;;14.10;92.90;;;;;;5073415;28;20024;-76
2021/09/13 00:44:33;;;;;;;11.38;6.80;;;14.20;93.00;;;;;;5073598;28;20522;-77
2021/09/13 00:46:59;;;;;;;12.20;6.45;;;14.10;93.00;;;;;;5073615;28;20461;-77
2021/09/13 00:49:25;;;;;;;8.75;6.35;;;14.10;93.30;;;;;;5074432;28;20378;-77
2021/09/13 00:51:51;;;;;;;11.93;6.68;;;14.10;93.10;;;;;;5074328;28;20396;-76
2021/09/13 00:54:18;;;;;;;9.90;6.35;;;14.10;93.20;;;;;;5072913;28;20477;-77
2021/09/13 00:56:44;;;;;;;11.32;5.70;;;14.10;93.20;;;;;;5073386;28;20481;-76
2021/09/13 00:59:10;;;;;;;12.80;5.80;;;14.10;93.20;;;;;;5073667;28;20491;-76
2021/09/13 01:01:36;;;;;;;11.82;6.40;;;14.00;93.10;;;;;;5073494;28;20024;-76
2021/09/13 01:04:02;;;;;;;10.88;5.97;;;14.10;93.10;;;;;;5074293;28;20157;-77
2021/09/13 01:06:27;;;;;;;7.53;5.20;;;14.10;93.20;;;;;;5073091;28;20071;-77
2021/09/13 01:08:53;;;;;;;14.50;5.30;;;14.10;93.10;;;;;;5072604;28;20017;-77
2021/09/13 01:11:22;;;;;;;10.77;4.95;;;14.10;93.00;;;;;;5072157;28;20024;-77
2021/09/13 01:13:48;;;;;;;11.48;5.00;;;14.00;92.80;;;;;;5072164;28;20086;-77
2021/09/13 01:16:14;;;;;;;11.15;4.88;;;14.00;92.80;;;;;;5072412;28;20060;-77
2021/09/13 01:18:40;;;;;;;9.98;4.90;;;14.00;92.80;;;;;;5073543;28;20020;-77
2021/09/13 01:21:06;;;;;;;9.73;4.45;;;14.00;92.90;;;;;;5072476;28;20460;-75
2021/09/13 01:23:33;;;;;;;12.23;4.18;;;14.00;92.90;;;;;;5072845;28;20025;-77
2021/09/13 01:25:59;;;;;;;9.38;4.25;;;13.90;92.90;;;;;;5074330;28;20464;-77
2021/09/13 01:28:26;;;;;;;10.38;4.25;;;13.90;92.90;;;;;;5073310;28;20064;-77
2021/09/13 01:30:52;;;;;;;13.88;3.95;;;13.90;93.00;;;;;;5072936;28;20060;-76
2021/09/13 01:33:18;;;;;;;11.60;3.70;;;13.90;93.00;;;;;;5073110;28;20469;-76
2021/09/13 01:35:44;;;;;;;9.43;4.22;;;14.00;93.00;;;;;;5074098;28;20028;-76
2021/09/13 01:38:10;;;;;;;6.97;4.03;;;13.90;93.00;;;;;;5073098;28;20381;-77
2021/09/13 01:40:35;;;;;;;17.20;4.47;;;13.90;93.20;;;;;;5073029;28;20031;-77
2021/09/13 01:43:02;;;;;;;9.48;5.13;;;13.90;93.20;;;;;;5073022;28;20029;-76
2021/09/13 01:45:29;;;;;;;9.82;4.53;;;13.90;93.30;;;;;;5072605;28;20021;-77
2021/09/13 01:47:55;;;;;;;9.90;3.80;;;13.90;93.30;;;;;;5073141;28;20024;-76
2021/09/13 01:50:21;;;;;;;10.95;4.20;;;13.80;93.30;;;;;;5072605;28;20349;-76
2021/09/13 01:52:47;;;;;;;11.23;4.47;;;13.90;93.30;;;;;;5073045;28;20074;-77
2021/09/13 01:55:13;;;;;;;9.00;4.15;;;13.80;93.40;;;;;;5074068;28;20032;-77
2021/09/13 01:57:38;;;;;;;7.15;3.92;;;13.80;93.30;;;;;;5072594;28;20055;-75
2021/09/13 02:00:07;;;;;;;16.15;5.32;;;13.80;93.30;;;;;;5074026;28;20021;-77
2021/09/13 02:02:32;;;;;;;9.00;3.78;;;13.80;93.40;;;;;;5072186;28;20059;-78
2021/09/13 02:04:58;;;;;;;11.43;4.63;;;13.80;93.30;;;;;;5073566;28;20020;-78
2021/09/13 02:07:23;;;;;;;8.05;4.15;;;13.80;93.30;;;;;;5073016;28;20029;-79
2021/09/13 02:09:52;;;;;;;11.35;4.88;;;13.80;93.30;;;;;;5072028;28;20016;-77
2021/09/13 02:12:24;;;;;;;13.00;4.15;;;13.70;93.30;;;;;;5071373;28;20082;-77
2021/09/13 02:14:50;;;;;;;8.75;3.53;;;13.80;93.30;;;;;;5071851;28;20400;-76
2021/09/13 02:17:16;;;;;;;8.98;3.60;;;13.70;93.30;;;;;;5071811;28;20031;-76
2021/09/13 02:19:46;;;;;;;8.95;3.45;;;13.70;93.30;;;;;;5072135;28;20017;-76
2021/09/13 02:22:12;;;;;;;8.18;3.75;;;13.70;93.30;;;;;;5079315;28;20050;-76
2021/09/13 02:24:38;;;;;;;8.13;3.13;;;13.70;93.40;;;;;;5082800;28;20024;-77
2021/09/13 02:27:04;;;;;;;11.32;3.78;;;13.70;93.40;;;;;;5083721;28;20021;-77
2021/09/13 02:29:29;;;;;;;10.35;3.60;;;13.70;93.40;;;;;;5081597;28;20409;-76
2021/09/13 02:31:58;;;;;;;7.65;3.47;;;13.70;93.40;;;;;;5073590;28;20028;-77
2021/09/13 02:34:27;;;;;;;12.93;4.30;;;13.70;93.40;;;;;;5074544;28;20025;-75
2021/09/13 02:36:52;;;;;;;6.70;3.72;;;13.70;93.40;;;;;;5072874;28;20012;-77
2021/09/13 02:39:18;;;;;;;8.80;4.43;;;13.70;93.40;;;;;;5071965;28;20039;-77
2021/09/13 02:41:44;;;;;;;6.65;3.65;;;13.70;93.40;;;;;;5071853;28;20185;-77
2021/09/13 02:44:09;;;;;;;10.98;3.85;;;13.70;93.40;;;;;;5071252;28;20534;-77
2021/09/13 02:46:35;;;;;;;10.00;3.80;;;13.60;93.40;;;;;;5071821;28;20424;-77
2021/09/13 02:49:00;;;;;;;13.38;3.97;;;13.60;93.30;;;;;;5072971;28;20078;-77
2021/09/13 02:51:26;;;;;;;6.55;3.22;;;13.60;93.40;;;;;;5072306;28;20024;-77
2021/09/13 02:53:51;;;;;;;10.23;4.13;;;13.60;93.40;;;;;;5072462;28;20029;-78
2021/09/13 02:56:17;;;;;;;7.47;3.53;;;13.60;93.40;;;;;;5071500;28;20024;-77
2021/09/13 02:58:43;;;;;;;8.35;3.85;;;13.60;93.40;;;;;;5072913;28;20146;-77
2021/09/13 03:01:09;;;;;;;7.05;3.25;;;13.60;93.50;;;;;;5072608;28;20464;-77
2021/09/13 03:03:35;;;;;;;10.98;3.60;;;13.60;93.50;;;;;;5070988;28;20085;-78
2021/09/13 03:06:00;;;;;;;11.80;3.83;;;13.60;93.50;;;;;;5072624;28;20498;-77
2021/09/13 03:08:26;;;;;;;9.07;3.58;;;13.60;93.50;;;;;;5070960;28;20421;-76
2021/09/13 03:10:52;;;;;;;11.50;3.63;;;13.60;93.50;;;;;;5071445;28;20021;-76
2021/09/13 03:13:17;;;;;;;9.57;3.45;;;13.60;93.50;;;;;;5072748;28;20024;-76
2021/09/13 03:15:43;;;;;;;9.00;3.47;;;13.50;93.50;;;;;;5071364;28;20491;-76
2021/09/13 03:18:09;;;;;;;11.70;3.92;;;13.60;93.40;;;;;;5071953;28;20437;-76
2021/09/13 03:20:34;;;;;;;8.68;2.92;;;13.60;93.40;;;;;;5071520;28;20058;-76
2021/09/13 03:23:00;;;;;;;9.63;3.70;;;13.60;93.40;;;;;;5072787;28;20059;-77
2021/09/13 03:25:26;;;;;;;5.55;3.03;;;13.60;93.50;;;;;;5071563;28;20020;-77
2021/09/13 03:27:52;;;;;;;13.68;3.88;;;13.50;93.30;;;;;;5072755;28;20361;-77
2021/09/13 03:30:18;;;;;;;10.57;3.30;;;13.50;93.30;;;;;;5071682;28;20070;-77
2021/09/13 03:32:44;;;;;;;9.75;3.40;;;13.50;93.30;;;;;;5072067;28;20024;-77
2021/09/13 03:35:10;;;;;;;11.07;4.35;;;13.50;93.40;;;;;;5073430;28;20031;-76
2021/09/13 03:37:35;;;;;;;11.25;3.67;;;13.50;93.40;;;;;;5071236;28;20082;-77
2021/09/13 03:40:02;;;;;;;11.45;3.85;;;13.40;93.60;;;;;;5072871;28;20024;-77
2021/09/13 03:42:27;;;;;;;7.95;2.97;;;13.50;93.30;;;;;;5076201;28;20024;-77
2021/09/13 03:44:53;;;;;;;7.15;3.13;;;13.50;93.30;;;;;;5076074;28;20028;-75
2021/09/13 03:47:18;;;;;;;7.38;3.22;;;13.50;93.30;;;;;;5074798;28;20017;-78
2021/09/13 03:49:44;;;;;;;12.15;4.05;;;13.40;93.30;;;;;;5074701;28;20017;-77
2021/09/13 03:52:10;;;;;;;10.63;3.78;;;13.40;93.40;;;;;;5074228;28;20469;-77
2021/09/13 03:54:36;;;;;;;10.32;4.05;;;13.40;93.50;;;;;;5073880;28;20025;-77
2021/09/13 03:57:03;;;;;;;8.80;3.90;;;13.50;93.60;;;;;;5074506;28;20020;-76
2021/09/13 03:59:28;;;;;;;7.88;3.80;;;13.40;93.70;;;;;;5076032;28;20031;-76
2021/09/13 04:01:54;;;;;;;11.43;4.10;;;13.40;93.70;;;;;;5076070;28;20028;-77
2021/09/13 04:04:23;;;;;;;10.00;4.18;;;13.50;93.80;;;;;;5075365;28;20107;-77
2021/09/13 04:07:01;;;;;;;10.23;3.83;;;13.40;93.90;;;;;;5074750;28;20137;-76
2021/09/13 04:11:59;;;;;;;12.07;4.38;;;13.60;94.00;;;;;;5076349;28;20028;-77
2021/09/13 04:14:29;;;;;;;11.80;4.28;;;13.60;93.80;;;;;;5077922;28;20096;-77
2021/09/13 04:16:56;;;;;;;11.15;4.57;;;13.70;93.70;;;;;;5084223;28;20084;-76
2021/09/13 04:19:22;;;;;;;11.07;4.30;;;13.60;93.60;;;;;;5084173;28;20055;-77
2021/09/13 04:21:53;;;;;;;12.57;4.07;;;13.60;93.60;;;;;;5084954;28;20032;-76
2021/09/13 04:24:19;;;;;;;10.20;4.43;;;13.60;93.60;;;;;;5082222;28;20032;-77
2021/09/13 04:26:45;;;;;;;8.18;3.80;;;13.60;93.60;;;;;;5074158;28;20025;-76
2021/09/13 04:29:11;;;;;;;16.42;4.63;;;13.60;93.60;;;;;;5073364;28;20033;-77
2021/09/13 04:31:37;;;;;;;6.03;3.83;;;13.60;93.60;;;;;;5074360;28;20024;-77
2021/09/13 04:34:03;;;;;;;11.20;4.75;;;13.60;93.70;;;;;;5074264;28;20405;-76
2021/09/13 04:36:28;;;;;;;11.07;4.13;;;13.60;93.70;;;;;;5073017;28;20025;-76
2021/09/13 04:38:54;;;;;;;8.07;3.90;;;13.60;93.80;;;;;;5073392;28;20376;-76
2021/09/13 04:41:20;;;;;;;9.45;3.80;;;13.60;93.80;;;;;;5073045;28;20433;-76
2021/09/13 04:43:46;;;;;;;12.55;4.20;;;13.60;93.60;;;;;;5073486;28;20103;-77
2021/09/13 04:46:12;;;;;;;8.70;3.97;;;13.50;93.60;;;;;;5073169;28;20047;-77
2021/09/13 04:48:38;;;;;;;7.70;3.78;;;13.50;93.60;;;;;;5073025;28;20107;-76
2021/09/13 04:51:04;;;;;;;11.88;5.45;;;13.50;93.60;;;;;;5072907;28;20116;-76
2021/09/13 04:53:29;;;;;;;8.50;4.07;;;13.50;93.60;;;;;;5074043;28;20082;-78
2021/09/13 04:55:55;;;;;;;11.02;4.55;;;13.50;93.60;;;;;;5073228;28;20058;-77
2021/09/13 04:58:21;;;;;;;9.48;3.85;;;13.50;93.60;;;;;;5074749;28;20021;-77
2021/09/13 05:00:46;;;;;;;12.57;3.88;;;13.50;93.60;;;;;;5074256;28;20043;-77
2021/09/13 05:03:12;;;;;;;8.60;4.25;;;13.40;93.60;;;;;;5074301;28;20064;-77
2021/09/13 05:05:38;;;;;;;7.00;4.00;;;13.40;93.60;;;;;;5072794;28;20020;-77
2021/09/13 05:08:03;;;;;;;9.00;4.10;;;13.50;93.70;;;;;;5074392;28;20115;-76
2021/09/13 05:10:29;;;;;;;10.48;5.00;;;13.40;93.70;;;;;;5073985;28;20020;-77
2021/09/13 05:12:55;;;;;;;9.48;4.47;;;13.40;93.70;;;;;;5073161;28;20032;-77
2021/09/13 05:15:20;;;;;;;9.73;4.65;;;13.40;93.80;;;;;;5072854;28;20096;-75
2021/09/13 05:17:46;;;;;;;11.93;4.70;;;13.40;93.80;;;;;;5073670;28;20025;-77
2021/09/13 05:20:13;;;;;;;11.65;4.75;;;13.40;93.80;;;;;;5074215;28;20028;-76
2021/09/13 05:22:38;;;;;;;9.93;4.95;;;13.40;93.80;;;;;;5072387;28;20174;-77
2021/09/13 05:25:04;;;;;;;14.45;4.63;;;13.50;93.90;;;;;;5072916;28;20066;-76
2021/09/13 05:27:30;;;;;;;10.82;5.15;;;13.50;93.90;;;;;;5072588;28;20024;-76
2021/09/13 05:29:56;;;;;;;13.40;5.47;;;13.50;93.90;;;;;;5072174;28;20033;-77
2021/09/13 05:32:21;;;;;;;9.98;5.43;;;13.60;94.00;;;;;;5072449;28;20119;-75
2021/09/13 05:34:47;;;;;;;12.05;4.72;;;13.60;94.00;;;;;;5075457;28;20032;-78
2021/09/13 05:37:13;;;;;;;9.27;5.00;;;13.60;94.00;;;;;;5074486;28;20107;-76
2021/09/13 05:39:38;;;;;;;13.73;5.03;;;13.70;93.90;;;;;;5072494;28;20044;-79
2021/09/13 05:42:04;;;;;;;14.18;5.70;;;13.70;93.90;;;;;;5072759;28;20020;-77
2021/09/13 05:44:30;;;;;;;14.32;5.45;;;13.80;93.80;;;;;;5072247;28;20028;-77
2021/09/13 05:46:56;;;;;;;12.93;5.53;;;13.80;93.80;;;;;;5072589;28;20032;-78
2021/09/13 05:49:22;;;;;;;14.65;6.05;;;13.90;93.80;;;;;;5072954;28;20024;-78
2021/09/13 05:51:51;;;;;;;14.20;6.60;;;14.00;93.90;;;;;;5074304;28;20044;-77
2021/09/13 05:54:22;;;;;;;14.00;6.83;;;14.00;93.90;;;;;;5073400;28;20059;-77
2021/09/13 05:56:49;;;;;;;;;;;14.10;93.90;;;;;;5074051;28;20025;-77
2021/09/13 05:59:16;;;;;;;14.60;6.15;;;14.20;93.80;;;;;;5071981;28;19911;-77
2021/09/13 06:01:42;;;;;;;11.73;7.28;;;14.20;93.80;;;;;;5071372;28;20028;-77
2021/09/13 06:04:08;;;;;;;17.85;8.00;;;14.30;93.70;;;;;;5072600;28;20393;-77
2021/09/13 06:06:34;;;;;;;15.10;7.10;;;14.40;93.70;;;;;;5072230;28;20170;-77
2021/09/13 06:08:59;;;;;;;12.88;6.55;;;14.50;93.50;;;;;;5075267;28;20024;-78
2021/09/13 06:11:27;;;;;;;15.07;8.82;;;14.50;93.40;;;;;;5076132;28;20107;-78
2021/09/13 06:13:53;;;;;;;13.82;8.07;;;14.60;93.30;;;;;;5081350;28;20025;-77
2021/09/13 06:16:19;;;;;;;19.40;8.90;;;14.60;93.20;;;;;;5087487;28;20025;-77
2021/09/13 06:18:44;;;;;;;12.73;8.27;;;14.60;93.00;;;;;;5082027;28;20020;-76
2021/09/13 06:21:10;;;;;;;20.63;9.35;;;14.60;93.10;;;;;;5077283;28;20416;-78
2021/09/13 06:23:36;;;;;;;12.82;7.90;;;14.70;93.10;;;;;;5072675;28;20458;-78
2021/09/13 06:26:02;;;;;;;15.63;9.23;;;14.70;93.10;;;;;;5072945;28;20028;-77
2021/09/13 06:28:28;;;;;;;16.95;8.52;;;14.80;93.00;;;;;;5071572;28;20480;-77
2021/09/13 06:30:54;;;;;;;21.83;10.00;;;14.90;92.90;;;;;;5073436;28;20035;-77
2021/09/13 06:33:19;;;;;;;15.35;8.93;;;14.90;92.80;;;;;;5071919;28;20096;-78
2021/09/13 06:35:45;;;;;;;22.23;9.35;;;15.10;92.80;;;;;;5072578;28;20094;-78
2021/09/13 06:38:11;;;;;;;14.07;8.70;;;15.20;92.70;;;;;;5071826;28;20043;-77
2021/09/13 06:40:36;;;;;;;13.77;8.57;;;15.30;92.60;;;;;;5072497;28;20024;-78
2021/09/13 06:43:02;;;;;;;17.48;9.55;;;15.40;92.40;;;;;;5071264;28;20025;-78
2021/09/13 06:45:27;;;;;;;15.05;8.73;;;15.50;92.00;;;;;;5071724;28;20077;-77
2021/09/13 06:47:53;;;;;;;19.15;8.63;;;15.70;92.00;;;;;;5062535;28;20033;-76
2021/09/13 06:50:25;;;;;;;15.50;9.10;;;15.80;92.20;;;;;;5053269;28;20028;-77
2021/09/13 06:52:52;;;;;;;18.00;9.48;;;16.00;91.80;;;;;;5051313;28;20032;-77
2021/09/13 06:55:18;;;;;;;15.65;8.93;;;16.10;91.50;;;;;;5051060;28;20067;-77
2021/09/13 06:57:44;;;;;;;14.48;9.70;;;16.30;91.20;;;;;;5040729;28;20057;-77
2021/09/13 07:00:13;;;;;;;13.88;9.25;;;16.50;91.10;;;;;;5038580;28;20067;-76
2021/09/13 07:02:40;;;;;;;19.23;10.38;;;16.60;91.00;;;;;;5038781;28;20132;-78
2021/09/13 07:05:07;;;;;;;14.40;8.30;;;16.80;90.70;;;;;;5038573;28;20488;-78
2021/09/13 07:07:34;;;;;;;13.25;8.50;;;17.00;90.40;;;;;;5031359;28;20017;-77
2021/09/13 07:09:59;;;;;;;15.45;8.85;;;17.10;90.30;;;;;;5031509;28;20026;-77
2021/09/13 07:12:25;;;;;;;16.98;8.35;;;17.20;90.10;;;;;;5031625;28;20048;-77
2021/09/13 07:14:51;;;;;;;17.33;8.48;;;17.30;89.80;;;;;;5035858;28;20036;-76
2021/09/13 07:17:16;;;;;;;17.02;8.73;;;17.40;89.30;;;;;;5035231;28;20103;-77
2021/09/13 07:19:44;;;;;;;14.80;10.13;;;17.50;88.60;;;;;;5035634;28;20061;-78
2021/09/13 07:22:10;;;;;;;17.15;8.90;;;17.60;88.30;;;;;;5035594;28;20021;-77
2021/09/13 07:24:36;;;;;;;16.45;10.07;;;17.80;87.60;;;;;;5035216;28;20032;-79
2021/09/13 07:27:01;;;;;;;16.83;9.90;;;17.90;86.20;;;;;;5035243;28;20097;-77
2021/09/13 07:29:27;;;;;;;15.18;9.52;;;18.00;86.30;;;;;;5034581;28;20032;-78
2021/09/13 07:31:53;;;;;;;13.98;8.45;;;18.20;85.90;;;;;;5047240;28;20363;-77
2021/09/13 07:34:18;;;;;;;16.13;9.90;;;18.40;84.80;;;;;;5050926;28;20033;-74
2021/09/13 07:36:44;;;;;;;13.77;9.80;;;18.50;84.30;;;;;;5041485;28;20412;-77
2021/09/13 07:39:10;;;;;;;18.60;9.70;;;18.60;82.70;;;;;;5034894;28;20037;-76
2021/09/13 07:41:35;;;;;;;8.65;6.15;;;18.70;83.30;;;;;;5035873;28;20036;-76
2021/09/13 07:44:01;;;;;;;8.73;5.25;;;18.80;82.50;;;;;;5034562;28;20033;-76
2021/09/13 07:46:26;;;;;;;17.65;9.75;;;18.80;82.70;;;;;;5034612;28;20022;-77
2021/09/13 07:48:52;;;;;;;10.60;6.03;;;18.80;82.60;;;;;;5034210;28;20480;-76
2021/09/13 07:51:18;;;;;;;13.65;9.45;;;18.90;82.60;;;;;;5034892;28;20118;-77
2021/09/13 07:53:45;;;;;;;12.60;7.60;;;19.00;82.20;;;;;;5034319;28;20025;-76
2021/09/13 07:56:11;;;;;;;12.18;7.55;;;19.10;82.20;;;;;;5034262;28;20032;-77
2021/09/13 07:58:36;;;;;;;5.45;2.58;;;19.30;81.80;;;;;;5034832;28;20021;-78
2021/09/13 08:01:02;;;;;;;5.18;3.08;;;19.50;80.60;;;;;;5034438;28;20021;-77
2021/09/13 08:03:27;;;;;;;12.73;7.68;;;19.70;79.60;;;;;;5037676;28;20355;-78
2021/09/13 08:05:53;;;;;;;11.15;6.85;;;20.00;79.10;;;;;;5051764;28;20525;-77
2021/09/13 08:08:19;;;;;;;6.45;3.70;;;20.10;78.60;;;;;;5063842;28;20502;-77
2021/09/13 08:10:44;;;;;;;12.50;7.50;;;20.00;78.90;;;;;;5060790;28;20535;-77
2021/09/13 08:13:10;;;;;;;9.98;4.03;;;20.00;79.00;;;;;;5060586;28;20124;-76
2021/09/13 08:15:36;;;;;;;7.43;3.38;;;20.10;78.90;;;;;;5055684;28;20029;-78
2021/09/13 08:18:01;;;;;;;4.22;1.88;;;20.20;78.70;;;;;;5055361;28;20085;-77
2021/09/13 08:20:27;;;;;;;7.75;3.60;;;20.40;78.70;;;;;;5054821;28;20024;-76
2021/09/13 08:22:53;;;;;;;7.00;4.05;;;20.50;77.60;;;;;;5054810;28;20492;-76
2021/09/13 08:25:18;;;;;;;10.25;4.65;;;20.50;77.90;;;;;;5053303;28;20098;-76
2021/09/13 08:27:44;;;;;;;7.15;4.60;;;20.50;77.00;;;;;;5053923;28;20424;-76
2021/09/13 08:30:10;;;;;;;7.57;4.10;;;20.50;76.80;;;;;;5053929;28;20032;-77
2021/09/13 08:32:38;;;;;;;7.82;4.38;;;20.60;76.50;;;;;;5054540;28;20021;-76
2021/09/13 08:35:04;;;;;;;7.38;3.38;;;20.40;76.60;;;;;;5055713;28;20032;-76
2021/09/13 08:37:30;;;;;;;7.03;3.60;;;20.20;77.30;;;;;;5052806;28;20021;-76
2021/09/13 08:39:56;;;;;;;4.25;2.10;;;20.10;77.60;;;;;;5066253;28;20025;-76
2021/09/13 08:42:21;;;;;;;6.43;2.10;;;20.00;78.40;;;;;;5056331;28;20025;-77
2021/09/13 08:44:50;;;;;;;5.38;2.25;;;20.10;79.40;;;;;;5068610;28;20017;-77
2021/09/13 08:47:22;;;;;;;6.35;3.08;;;20.10;79.20;;;;;;5060648;28;20503;-76
2021/09/13 08:49:50;;;;;;;7.03;2.80;;;20.10;78.70;;;;;;5060246;28;20036;-77
2021/09/13 08:52:15;;;;;;;5.55;2.30;;;20.00;79.40;;;;;;5069257;28;20067;-75
2021/09/13 08:54:41;;;;;;;3.45;1.50;;;20.00;80.10;;;;;;5057754;28;20032;-77
2021/09/13 08:57:08;;;;;;;4.68;2.08;;;19.90;80.60;;;;;;5067920;28;20097;-76
2021/09/13 08:59:38;;;;;;;4.53;1.70;;;19.90;80.60;;;;;;5062836;28;20048;-76
2021/09/13 09:02:05;;;;;;;;;;;19.90;80.90;;;;;;5058777;28;20040;-76
2021/09/13 09:04:31;;;;;;;7.35;2.25;;;19.90;80.70;;;;;;5069946;28;20206;-77
2021/09/13 09:07:07;;;;;;;4.78;1.83;;;19.90;80.60;;;;;;5052702;28;20043;-74
2021/09/13 09:09:33;;;;;;;7.20;2.05;;;20.00;78.90;;;;;;5053659;28;20025;-76
2021/09/13 09:12:06;;;;;;;4.53;1.60;;;20.00;77.80;;;;;;5053779;28;20112;-76
2021/09/13 09:14:32;;;;;;;2.92;1.13;;;20.10;77.40;;;;;;5053445;28;20017;-75
2021/09/13 09:17:09;;;;;;;3.85;1.38;;;20.10;77.40;;;;;;5052371;28;20473;-75
2021/09/13 09:19:36;;;;;;;4.47;1.80;;;20.20;77.40;;;;;;5051930;28;20021;-75
2021/09/13 09:22:40;;;;;;;4.47;2.22;;;20.30;78.00;;;;;;5052518;28;20125;-75
2021/09/13 09:25:08;;;;;;;4.28;1.20;;;20.30;77.60;;;;;;5016214;28;20044;-74
2021/09/13 09:27:54;;;;;;;10.80;4.72;;;20.40;79.00;;;;;;5015907;28;20041;-73
2021/09/13 09:30:21;;;;;;;4.70;2.08;;;20.40;78.50;;;;;;5036338;28;20106;-75
2021/09/13 09:33:10;;;;;;;7.45;2.70;;;20.40;76.70;;;;;;5053966;28;20028;-75
2021/09/13 09:35:46;;;;;;;3.53;1.63;;;20.40;76.40;;;;;;5053264;28;20028;-75
2021/09/13 09:38:34;;;;;;;3.53;1.25;;;20.40;76.20;;;;;;5052539;28;20021;-75
2021/09/13 09:41:02;;;;;;;3.33;1.25;;;20.40;78.10;;;;;;5052381;28;20021;-75
2021/09/13 09:43:54;;;;;;;2.10;1.30;;;20.30;78.90;;;;;;5052090;28;20068;-74
2021/09/13 09:46:23;;;;;;;3.72;1.33;;;20.30;78.40;;;;;;5051889;28;20037;-74
2021/09/13 09:48:49;;;;;;;3.95;1.08;;;20.40;78.10;;;;;;5051621;28;20438;-76
2021/09/13 09:51:50;;;;;;;2.90;1.00;;;20.50;76.70;;;;;;5051640;28;20055;-75
2021/09/13 09:54:34;;;;;;;2.63;1.00;;;20.50;78.50;;;;;;5027944;28;20037;-75
2021/09/13 09:57:07;;;;;;;3.15;0.98;;;20.60;76.90;;;;;;5045459;28;20381;-75
2021/09/13 09:59:37;;;;;;;3.90;1.00;;;20.50;77.50;;;;;;5054180;28;20041;-74
2021/09/13 10:02:13;;;;;;;3.13;1.20;;;20.50;78.70;;;;;;5053498;28;20033;-75
2021/09/13 10:04:40;;;;;;;3.35;1.20;;;20.50;78.70;;;;;;5068204;28;20059;-75
2021/09/13 10:07:07;;;;;;;2.67;0.93;;;20.50;79.00;;;;;;5055831;28;20055;-74
2021/09/13 10:09:33;;;;;;;3.85;1.33;;;20.50;78.90;;;;;;5065899;28;20369;-76
2021/09/13 10:12:02;;;;;;;2.72;1.27;;;20.60;78.30;;;;;;5054119;28;20148;-76
2021/09/13 10:14:30;;;;;;;5.55;1.10;;;20.70;76.10;;;;;;5067217;28;20013;-75
2021/09/13 10:16:57;;;;;;;5.10;1.40;;;20.70;75.70;;;;;;5061047;28;20431;-76
2021/09/13 10:19:24;;;;;;;3.22;1.23;;;20.80;76.00;;;;;;5070993;28;20468;-75
2021/09/13 10:21:51;;;;;;;4.43;1.63;;;20.80;76.70;;;;;;5055478;28;20032;-76
2021/09/13 10:24:30;;;;;;;4.20;1.67;;;20.80;76.80;;;;;;5067554;28;20170;-75
2021/09/13 10:27:00;;;;;;;5.28;1.88;;;20.80;75.00;;;;;;5061515;28;20468;-76
2021/09/13 10:29:27;;;;;;;1.95;0.90;;;21.00;74.20;;;;;;5058789;28;20154;-75
2021/09/13 10:31:59;;;;;;;2.70;1.00;;;21.00;75.90;;;;;;5067273;28;20029;-76
2021/09/13 10:34:30;;;;;;;3.20;1.10;;;21.20;74.00;;;;;;5055594;28;20017;-75
2021/09/13 10:37:08;;;;;;;4.68;1.60;;;21.20;72.40;;;;;;5062773;28;20017;-74
2021/09/13 10:39:59;;;;;;;2.22;1.00;;;21.20;72.40;;;;;;5065405;28;20076;-76
2021/09/13 10:42:43;;;;;;;3.10;1.15;;;21.30;74.10;;;;;;5041798;28;20029;-75
2021/09/13 10:45:24;;;;;;;1.75;1.05;;;21.60;73.20;;;;;;5053897;28;20029;-75
2021/09/13 10:47:57;;;;;;;2.75;1.10;;;21.80;73.30;;;;;;5056498;28;20031;-75
2021/09/13 10:50:33;;;;;;;1.58;1.00;;;21.90;72.50;;;;;;5072808;28;20157;-75
2021/09/13 10:53:00;;;;;;;1.77;1.00;;;22.00;73.60;;;;;;5068416;28;20086;-76
2021/09/13 10:55:39;;;;;;;3.00;1.00;;;21.90;73.90;;;;;;5062055;28;20029;-75
2021/09/13 10:58:16;;;;;;;2.95;0.98;;;21.90;74.10;;;;;;5048739;28;20434;-75
2021/09/13 11:00:45;;;;;;;3.75;1.00;;;21.90;74.40;;;;;;5046903;28;20458;-75
2021/09/13 11:03:23;;;;;;;1.90;0.90;;;21.90;74.50;;;;;;5055621;28;20086;-75
2021/09/13 11:06:07;;;;;;;3.47;1.30;;;21.70;74.80;;;;;;5058372;28;20071;-76
2021/09/13 11:08:40;;;;;;;4.00;1.15;;;21.40;76.80;;;;;;5057407;28;20520;-76
2021/09/13 11:11:25;;;;;;;2.22;1.00;;;21.20;76.70;;;;;;5057253;28;20488;-76
2021/09/13 11:14:11;;;;;;;2.92;1.00;;;21.00;77.80;;;;;;5057727;28;20157;-75
2021/09/13 11:16:42;;;;;;;1.55;0.85;;;20.80;78.60;;;;;;5061402;28;20217;-76
2021/09/13 11:19:10;;;;;;;3.55;1.38;;;20.70;79.10;;;;;;5060165;28;20377;-75
2021/09/13 11:21:44;;;;;;;3.05;1.35;;;20.60;79.10;;;;;;5057469;28;20029;-76
2021/09/13 11:24:25;;;;;;;2.38;1.23;;;20.50;79.30;;;;;;5058729;28;20025;-76
2021/09/13 11:26:55;;;;;;;3.65;1.00;;;20.50;80.00;;;;;;5058503;28;20017;-76
2021/09/13 11:29:31;;;;;;;1.88;1.00;;;20.50;79.40;;;;;;5057195;28;20049;-75
2021/09/13 11:31:59;;;;;;;2.72;1.05;;;20.50;79.60;;;;;;5057072;28;20042;-75
2021/09/13 11:34:36;;;;;;;2.70;1.00;;;20.40;80.00;;;;;;5058607;28;20408;-74
2021/09/13 11:37:18;;;;;;;2.58;1.00;;;20.40;79.90;;;;;;5058368;28;20021;-75
2021/09/13 11:39:57;;;;;;;2.28;0.80;;;20.30;79.80;;;;;;5058632;28;20363;-76
2021/09/13 11:42:32;;;;;;;1.30;0.80;;;20.30;80.10;;;;;;5057134;28;20036;-76
2021/09/13 11:45:06;;;;;;;2.72;1.10;;;20.30;80.10;;;;;;5058437;28;20021;-75
2021/09/13 11:47:34;;;;;;;2.10;0.80;;;20.40;79.80;;;;;;5057350;28;20025;-75
2021/09/13 11:50:02;;;;;;;3.78;1.35;;;20.40;79.00;;;;;;5059406;28;20032;-75
2021/09/13 11:52:33;;;;;;;3.20;1.35;;;20.30;80.00;;;;;;5059225;28;20028;-75
2021/09/13 11:55:16;;;;;;;2.72;1.05;;;20.30;80.00;;;;;;5058592;28;20032;-75
2021/09/13 11:57:48;;;;;;;2.70;0.90;;;20.40;79.70;;;;;;5061068;28;20021;-76
2021/09/13 12:00:15;;;;;;;2.13;0.90;;;20.50;79.30;;;;;;5059149;28;20376;-75
2021/09/13 12:02:43;;;;;;;2.58;0.80;;;20.60;78.70;;;;;;5056152;28;20052;-75
2021/09/13 12:05:12;;;;;;;1.85;0.90;;;20.60;78.70;;;;;;5054352;28;20025;-76
2021/09/13 12:07:38;;;;;;;4.15;1.00;;;20.70;78.40;;;;;;5053923;28;20123;-75
2021/09/13 12:10:15;;;;;;;2.53;0.90;;;20.70;77.30;;;;;;5053820;28;20028;-76
2021/09/13 12:12:46;;;;;;;2.30;0.82;;;20.60;78.00;;;;;;5054073;28;20017;-75
2021/09/13 12:15:13;;;;;;;3.83;1.13;;;20.70;77.90;;;;;;5055296;28;20389;-75
2021/09/13 12:17:44;;;;;;;3.40;1.05;;;20.80;77.80;;;;;;5053599;28;20028;-75
2021/09/13 12:20:13;;;;;;;1.70;0.70;;;20.90;77.50;;;;;;5053902;28;20017;-75
2021/09/13 12:22:39;;;;;;;2.92;0.88;;;21.00;77.00;;;;;;5055002;28;20029;-75
2021/09/13 12:25:26;;;;;;;2.58;1.15;;;21.10;76.70;;;;;;5054773;28;20025;-75
2021/09/13 12:28:02;;;;;;;4.78;0.90;;;21.20;76.10;;;;;;5052674;28;20087;-74
2021/09/13 12:30:35;;;;;;;6.32;1.60;;;21.40;75.30;;;;;;5053478;28;20032;-76
2021/09/13 12:33:03;;;;;;;3.78;1.05;;;21.70;73.30;;;;;;5054171;28;20039;-75
2021/09/13 12:35:42;;;;;;;4.10;1.05;;;21.80;70.50;;;;;;5053202;28;20028;-76
2021/09/13 12:38:19;;;;;;;2.75;0.73;;;22.10;69.20;;;;;;5054610;28;20023;-75
2021/09/13 12:41:00;;;;;;;3.53;0.80;;;22.40;71.30;;;;;;5054503;28;20029;-74
2021/09/13 12:43:30;;;;;;;4.32;0.90;;;22.80;71.20;;;;;;5053137;28;20528;-75
2021/09/13 12:46:14;;;;;;;2.38;1.00;;;23.10;69.80;;;;;;5052872;28;20059;-75
2021/09/13 12:48:45;;;;;;;2.13;0.88;;;23.40;69.40;;;;;;5053958;28;20385;-75
2021/09/13 12:51:16;;;;;;;2.03;0.75;;;23.60;67.60;;;;;;5052940;28;20027;-75